Pottsville, Kentucky
Current Conditions -  °F | °C
As of 9:35 AM on Friday 31 Oct 2014 (Local Time) from KM25 Reporting Station
Overcast Overcast  
Wind Chill: 50°   Ceiling: 1500
Heat Index: 50°   Visibility: 10mi
Dew Point: 46°   Wind: 12mph
Humidity: 87%   Direction: 360°N
Pressure: 30.1"   Gusts: 18mph
Location:  36.8496°N, 88.6894°W
Report Text: KM25 311435Z AUTO 36010G16KT 10SM BKN015 BKN029 OVC033 10/08 A3010 RMK AO2
Loading
Personal Weather Stations






























Interactive Weather Map
Tropical Storm Tracking
New forecast layout! Learn more

10-Day Weather Forecast

Advertisements
Track Severe Weather on mobile